Time;durP1;ratioP1;P1;durP2;ratioP2;P2;SDS_P1;SDS_P2;PMS_P1;PMS_P2;Temp;Humidity;BMP_temperature;BMP_pressure;BME280_temperature;BME280_humidity;BME280_pressure;Samples;Min_cycle;Max_cycle;Signal;HPM_P1;HPM_P2
2023/01/03 00:02:13;;;;;;;10.80;8.00;;;;;;;5.51;100.00;62568.09;5022427;28;20219;-81
2023/01/03 00:04:40;;;;;;;14.27;8.65;;;;;;;5.47;100.00;62558.41;5023941;28;20219;-79
2023/01/03 00:07:06;;;;;;;12.10;8.20;;;;;;;5.45;100.00;62561.91;5023592;28;20543;-78
2023/01/03 00:09:33;;;;;;;9.80;7.68;;;;;;;5.42;100.00;62553.78;5032150;28;20203;-81
2023/01/03 00:14:45;;;;;;;9.10;6.70;;;;;;;5.36;100.00;62550.13;5015766;28;20229;-81
2023/01/03 00:17:13;;;;;;;12.18;8.65;;;;;;;5.35;100.00;62551.09;5048596;28;20549;-80
2023/01/03 00:19:45;;;;;;;16.92;9.52;;;;;;;5.28;100.00;62544.41;5035404;28;20240;-81
2023/01/03 00:22:13;;;;;;;17.83;11.63;;;;;;;5.30;100.00;62543.94;5026989;28;20603;-81
2023/01/03 00:24:40;;;;;;;21.70;12.43;;;;;;;5.29;100.00;62539.88;5028622;28;20203;-82
2023/01/03 00:27:07;;;;;;;16.13;10.70;;;;;;;5.11;100.00;62529.41;5031239;28;20230;-80
2023/01/03 00:29:37;;;;;;;21.92;15.15;;;;;;;5.24;100.00;62537.75;5028551;28;20261;-80
2023/01/03 00:32:05;;;;;;;20.48;13.38;;;;;;;5.19;100.00;62534.63;5029879;28;20235;-81
2023/01/03 00:34:34;;;;;;;16.88;11.85;;;;;;;5.30;100.00;62546.47;5030656;28;20239;-80
2023/01/03 00:37:01;;;;;;;13.88;8.73;;;;;;;5.31;100.00;62546.97;5040479;28;20433;-80
2023/01/03 00:39:28;;;;;;;13.15;10.43;;;;;;;5.30;100.00;62548.97;5026544;28;20206;-80
2023/01/03 00:41:55;;;;;;;14.00;9.57;;;;;;;5.31;100.00;62549.50;5025722;28;20234;-80
2023/01/03 00:44:22;;;;;;;13.20;8.95;;;;;;;5.29;100.00;62545.44;5028676;28;20351;-79
2023/01/03 00:46:49;;;;;;;16.48;8.93;;;;;;;5.23;100.00;62541.28;5034658;28;20222;-80
2023/01/03 00:49:17;;;;;;;15.90;9.10;;;;;;;5.27;100.00;62542.84;5024722;28;20212;-80
2023/01/03 00:51:45;;;;;;;13.30;8.30;;;;;;;5.30;100.00;62543.41;5029458;28;20233;-80
2023/01/03 00:54:14;;;;;;;10.73;7.70;;;;;;;5.28;100.00;62539.34;5030120;28;20495;-80
2023/01/03 00:56:42;;;;;;;8.98;6.47;;;;;;;5.32;100.00;62543.47;5037559;28;20475;-80
2023/01/03 00:59:10;;;;;;;8.38;7.13;;;;;;;5.17;100.00;62530.56;5014332;28;20199;-78
2023/01/03 01:01:39;;;;;;;12.52;7.53;;;;;;;5.29;100.00;62547.44;5024059;28;20217;-82
2023/01/03 01:04:09;;;;;;;11.45;7.32;;;;;;;5.32;100.00;62551.03;5020326;28;20266;-81
2023/01/03 01:06:38;;;;;;;14.10;7.63;;;;;;;5.33;100.00;62549.03;5009220;28;20448;-79
2023/01/03 01:09:11;;;;;;;14.05;9.00;;;;;;;5.29;100.00;62544.91;5027403;28;20206;-80
2023/01/03 01:11:39;;;;;;;10.52;7.32;;;;;;;5.33;100.00;62549.03;5026853;28;20281;-80
2023/01/03 01:14:18;;;;;;;9.30;7.50;;;;;;;5.32;100.00;62545.47;5026334;28;20203;-81
2023/01/03 01:16:47;;;;;;;11.52;7.22;;;;;;;5.31;100.00;62541.94;5025308;28;20254;-81
2023/01/03 01:19:15;;;;;;;9.82;7.40;;;;;;;5.30;100.00;62548.47;5009943;28;20376;-81
2023/01/03 01:21:41;;;;;;;12.32;6.65;;;;;;;5.26;100.00;62544.88;5008830;28;20294;-79
2023/01/03 01:24:10;;;;;;;10.15;6.30;;;;;;;5.40;100.00;62556.75;5008411;28;20218;-80
2023/01/03 01:26:37;;;;;;;6.35;5.47;;;;;;;5.26;100.00;62539.81;5013332;28;20540;-81
2023/01/03 01:29:04;;;;;;;9.63;6.15;;;;;;;5.39;100.00;62555.72;5023817;28;20389;-82
2023/01/03 01:31:32;;;;;;;7.43;5.47;;;;;;;5.42;100.00;62558.28;5038203;28;20280;-80
2023/01/03 01:33:59;;;;;;;8.27;5.32;;;;;;;5.40;100.00;62553.72;5045195;28;20206;-80
2023/01/03 01:36:28;;;;;;;10.98;5.15;;;;;;;5.43;100.00;62557.34;5017992;28;20442;-81
2023/01/03 01:38:57;;;;;;;8.23;5.97;;;;;;;5.55;100.00;62569.69;5027408;28;20248;-81
2023/01/03 01:44:45;;;;;;;9.05;5.68;;;;;;;5.36;100.00;62552.66;5007617;28;20199;-80
2023/01/03 01:47:20;;;;;;;5.45;4.95;;;;;;;5.55;100.00;62572.22;5010377;28;20230;-81
2023/01/03 01:49:52;;;;;;;7.32;5.07;;;;;;;5.54;100.00;62568.66;5031994;28;20273;-80
2023/01/03 01:52:20;;;;;;;6.70;5.32;;;;;;;5.51;100.00;62565.06;5029121;28;20289;-81
2023/01/03 01:54:51;;;;;;;5.88;4.97;;;;;;;5.55;100.00;62572.22;5028566;28;20492;-80
2023/01/03 01:57:24;;;;;;;6.25;4.55;;;;;;;5.55;100.00;62574.22;5030804;28;20226;-80
2023/01/03 01:59:51;;;;;;;6.90;4.65;;;;;;;5.51;100.00;62565.56;5048299;28;20285;-81
2023/01/03 02:02:21;;;;;;;8.98;5.30;;;;;;;5.47;100.00;62563.97;5032550;28;20402;-80
2023/01/03 02:04:52;;;;;;;5.10;4.60;;;;;;;5.42;100.00;62558.28;5035046;28;20218;-82
2023/01/03 02:07:22;;;;;;;8.88;5.20;;;;;;;5.45;100.00;62561.41;5040463;28;20288;-79
2023/01/03 02:09:52;;;;;;;6.07;4.53;;;;;;;5.44;100.00;62562.88;5026356;28;20203;-80
2023/01/03 02:15:28;;;;;;;5.28;4.47;;;;;;;5.35;100.00;62546.56;5030713;28;20229;-81
2023/01/03 02:18:07;;;;;;;5.22;4.50;;;;;;;5.31;100.00;62552.53;5045229;28;20202;-80
2023/01/03 02:20:56;;;;;;;5.47;4.68;;;;;;;5.24;100.00;62535.25;5011618;28;20219;-80
2023/01/03 02:24:18;;;;;;;5.30;4.82;;;;;;;5.24;100.00;62542.28;5011761;28;20199;-81
2023/01/03 02:26:53;;;;;;;6.40;5.78;;;;;;;5.17;100.00;62530.03;4989889;28;20266;-81
2023/01/03 02:29:54;;;;;;;11.30;7.70;;;;;;;4.97;100.00;62507.41;5031033;28;20202;-81
2023/01/03 02:32:35;;;;;;;15.60;8.55;;;;;;;5.13;100.00;62530.97;5030337;28;20288;-80
2023/01/03 02:35:09;;;;;;;11.93;7.93;;;;;;;5.13;100.00;62528.44;5043747;28;20205;-81
2023/01/03 02:37:41;;;;;;;12.63;7.57;;;;;;;5.15;100.00;62525.44;5031307;28;20226;-80
2023/01/03 02:40:13;;;;;;;13.77;9.40;;;;;;;5.08;100.00;62520.75;5032993;28;20526;-80
2023/01/03 02:42:57;;;;;;;13.68;8.93;;;;;;;5.17;100.00;62527.50;5026803;28;20223;-81
2023/01/03 02:45:39;;;;;;;12.05;6.97;;;;;;;5.05;100.00;62522.72;5029720;28;20241;-82
2023/01/03 02:48:13;;;;;;;8.23;6.15;;;;;;;5.14;100.00;62524.94;5021940;28;20237;-82
2023/01/03 02:50:46;;;;;;;7.43;6.47;;;;;;;5.06;100.00;62516.69;5033498;28;20256;-80
2023/01/03 02:53:18;;;;;;;9.32;5.85;;;;;;;5.10;100.00;62523.34;5031065;28;20541;-80
2023/01/03 02:55:47;;;;;;;13.18;9.48;;;;;;;5.07;100.00;62520.25;5030628;28;20269;-80
2023/01/03 02:58:18;;;;;;;14.60;8.45;;;;;;;5.00;100.00;62515.56;5031472;28;20198;-81
2023/01/03 03:00:50;;;;;;;13.45;8.80;;;;;;;5.01;100.00;62513.56;5024457;28;20219;-80
2023/01/03 03:03:23;;;;;;;15.93;9.07;;;;;;;5.04;100.00;62522.19;5029317;28;20317;-80
2023/01/03 03:05:57;;;;;;;8.80;6.90;;;;;;;4.94;100.00;62508.88;5029617;28;20226;-80
2023/01/03 03:08:24;;;;;;;9.27;5.97;;;;;;;5.01;100.00;62516.59;5028344;28;20218;-81
2023/01/03 03:13:40;;;;;;;9.63;6.97;;;;;;;5.07;100.00;62522.25;5041730;28;20229;-81
2023/01/03 03:16:13;;;;;;;12.00;6.68;;;;;;;5.00;100.00;62515.56;5017238;28;20270;-81
2023/01/03 03:18:47;;;;;;;8.77;7.18;;;;;;;5.05;100.00;62518.19;5017712;28;20232;-80
2023/01/03 03:26:58;;;;;;;6.90;5.97;;;;;;;4.90;100.00;62505.25;5029069;28;20222;-80
2023/01/03 03:29:27;;;;;;;9.57;6.45;;;;;;;4.94;100.00;62506.88;5028860;28;20199;-79
2023/01/03 03:31:55;;;;;;;8.90;5.72;;;;;;;5.03;100.00;62516.13;5030140;28;20234;-79
2023/01/03 03:34:26;;;;;;;8.10;5.75;;;;;;;4.96;100.00;62513.44;5013351;28;20218;-81
2023/01/03 03:36:57;;;;;;;7.65;5.70;;;;;;;4.96;100.00;62513.44;5015615;28;20474;-80
2023/01/03 03:45:12;;;;;;;6.80;5.28;;;;;;;5.01;100.00;62521.63;5030597;28;20309;-80
2023/01/03 03:47:47;;;;;;;10.65;7.07;;;;;;;5.01;100.00;62516.59;5028127;28;20294;-81
2023/01/03 03:50:22;;;;;;;14.35;8.25;;;;;;;4.97;100.00;62512.47;5026453;28;20201;-80
2023/01/03 03:52:53;;;;;;;15.30;7.93;;;;;;;5.00;100.00;62510.00;5029153;28;20216;-79
2023/01/03 03:55:24;;;;;;;14.20;9.30;;;;;;;4.98;100.00;62510.47;5036324;28;20244;-80
2023/01/03 03:57:58;;;;;;;16.58;11.27;;;;;;;4.87;100.00;62504.69;5036291;28;20594;-80
2023/01/03 04:00:30;;;;;;;17.90;12.32;;;;;;;4.90;100.00;62499.72;5028179;28;20199;-80
2023/01/03 04:02:59;;;;;;;17.50;11.50;;;;;;;4.93;100.00;62505.84;5030997;28;20202;-81
2023/01/03 04:05:32;;;;;;;15.75;10.93;;;;;;;4.98;100.00;62511.00;5028303;28;20257;-81
2023/01/03 04:07:59;;;;;;;16.65;11.20;;;;;;;4.90;100.00;62504.75;5028894;28;20245;-81
2023/01/03 04:10:26;;;;;;;16.15;11.70;;;;;;;4.97;100.00;62509.44;5029287;28;20210;-81
2023/01/03 04:12:53;;;;;;;16.13;10.00;;;;;;;4.96;100.00;62511.44;5040705;28;20226;-80
2023/01/03 04:15:20;;;;;;;16.33;11.52;;;;;;;4.82;100.00;62496.50;5040820;28;20202;-80
2023/01/03 04:17:47;;;;;;;16.13;10.50;;;;;;;4.92;100.00;62504.81;5029868;28;20198;-80
2023/01/03 04:20:14;;;;;;;11.85;8.25;;;;;;;4.94;100.00;62506.34;5023898;28;20469;-79
2023/01/03 04:22:43;;;;;;;10.55;7.13;;;;;;;4.93;100.00;62513.41;5034049;28;20233;-79
2023/01/03 04:25:09;;;;;;;9.55;6.97;;;;;;;4.91;100.00;62500.72;5034897;28;20281;-80
2023/01/03 04:27:37;;;;;;;9.63;7.32;;;;;;;4.88;100.00;62500.69;5036938;28;20230;-80
2023/01/03 04:30:04;;;;;;;15.45;8.23;;;;;;;4.79;100.00;62493.44;5028536;28;20206;-81
2023/01/03 04:32:31;;;;;;;9.35;6.75;;;;;;;4.81;100.00;62498.00;5032782;28;20292;-81
2023/01/03 04:34:58;;;;;;;8.60;6.97;;;;;;;4.80;100.00;62492.44;5049217;28;20205;-81
2023/01/03 04:37:25;;;;;;;17.58;7.90;;;;;;;4.80;100.00;62494.97;5047518;28;20298;-80
2023/01/03 04:39:54;;;;;;;9.85;7.70;;;;;;;4.78;100.00;62492.91;5028423;28;20206;-81
2023/01/03 04:45:01;;;;;;;8.95;7.68;;;;;;;4.70;100.00;62485.19;4979417;28;20206;-81
2023/01/03 04:47:28;;;;;;;11.18;8.00;;;;;;;4.69;100.00;62481.13;5013955;28;20235;-81
2023/01/03 04:49:55;;;;;;;10.45;7.47;;;;;;;4.67;100.00;62484.63;5009238;28;20250;-80
2023/01/03 04:52:22;;;;;;;12.02;7.97;;;;;;;4.63;100.00;62475.47;5027376;28;20273;-80
2023/01/03 04:54:49;;;;;;;11.48;8.63;;;;;;;4.69;100.00;62479.13;5010125;28;20227;-80
2023/01/03 04:57:17;;;;;;;8.48;6.75;;;;;;;4.66;100.00;62478.56;5012703;28;20231;-81
2023/01/03 04:59:44;;;;;;;10.02;6.60;;;;;;;4.72;100.00;62484.22;5023031;28;20202;-81
2023/01/03 05:02:11;;;;;;;8.73;7.20;;;;;;;4.67;100.00;62479.06;5038934;28;20245;-80
2023/01/03 05:04:39;;;;;;;10.75;7.25;;;;;;;4.60;100.00;62474.38;5028615;28;20211;-82
2023/01/03 05:07:06;;;;;;;16.95;8.25;;;;;;;4.66;100.00;62483.06;5011665;28;20307;-81
2023/01/03 05:09:33;;;;;;;16.90;11.93;;;;;;;4.60;100.00;62471.88;5027730;28;20230;-80
2023/01/03 05:12:00;;;;;;;19.33;12.25;;;;;;;4.48;100.00;62462.03;5031897;28;20281;-82
2023/01/03 05:14:28;;;;;;;13.88;11.68;;;;;;;4.38;100.00;62447.19;5025878;28;20273;-79
2023/01/03 05:16:55;;;;;;;14.35;9.63;;;;;;;4.44;100.00;62452.88;5031770;28;20246;-80
2023/01/03 05:19:22;;;;;;;12.50;8.68;;;;;;;4.36;100.00;62447.16;5008723;28;20231;-78
2023/01/03 05:27:17;;;;;;;10.48;7.93;;;;;;;4.22;100.00;62433.28;5047976;28;20213;-78
2023/01/03 05:29:49;;;;;;;12.05;9.65;;;;;;;4.21;100.00;62429.72;5047464;28;20208;-79
2023/01/03 05:32:16;;;;;;;12.98;8.40;;;;;;;4.18;100.00;62431.66;5042535;28;20242;-77
2023/01/03 05:34:43;;;;;;;12.98;9.88;;;;;;;4.16;100.00;62429.09;5028929;28;20206;-79
2023/01/03 05:37:10;;;;;;;16.55;9.85;;;;;;;4.12;100.00;62420.47;5024755;28;20332;-77
2023/01/03 05:39:37;;;;;;;14.43;10.48;;;;;;;4.12;100.00;62425.00;5026444;28;20403;-79
2023/01/03 05:42:04;;;;;;;15.38;8.68;;;;;;;4.07;100.00;62417.31;5028317;28;20238;-77
2023/01/03 05:44:33;;;;;;;16.58;10.05;;;;;;;4.12;100.00;62423.00;5033238;28;20265;-78
2023/01/03 05:47:03;;;;;;;17.50;11.27;;;;;;;4.16;100.00;62426.59;5029058;28;20218;-80
2023/01/03 05:49:30;;;;;;;18.17;10.95;;;;;;;4.17;100.00;62430.66;5006477;28;20199;-81
2023/01/03 05:51:57;;;;;;;19.58;13.23;;;;;;;4.19;100.00;62434.72;5015864;28;20405;-80
2023/01/03 05:54:24;;;;;;;13.95;10.30;;;;;;;4.20;100.00;62428.16;5028697;28;20199;-82
2023/01/03 05:56:51;;;;;;;22.13;11.88;;;;;;;4.20;100.00;62433.22;5029595;28;20248;-81
2023/01/03 05:59:19;;;;;;;21.17;11.93;;;;;;;4.32;100.00;62445.56;5029322;28;20521;-80
2023/01/03 06:01:46;;;;;;;12.50;10.13;;;;;;;4.33;100.00;62444.59;5021379;28;20363;-80
2023/01/03 06:04:15;;;;;;;15.27;11.13;;;;;;;4.29;100.00;62440.47;5027432;28;20230;-81
2023/01/03 06:06:42;;;;;;;14.85;11.50;;;;;;;4.30;100.00;62441.50;5040822;28;20245;-80
2023/01/03 06:09:09;;;;;;;21.75;13.18;;;;;;;4.28;100.00;62439.44;5030697;28;20266;-81
2023/01/03 06:11:36;;;;;;;26.08;15.27;;;;;;;4.22;100.00;62435.78;5026178;28;20268;-79
2023/01/03 06:14:03;;;;;;;24.85;15.65;;;;;;;4.28;100.00;62438.94;5027252;28;20211;-80
2023/01/03 06:19:17;;;;;;;23.33;15.20;;;;;;;4.36;100.00;62445.16;5025423;28;20267;-81
2023/01/03 06:21:44;;;;;;;24.63;15.07;;;;;;;4.50;100.00;62461.56;5029608;28;20223;-81
2023/01/03 06:24:11;;;;;;;26.33;16.00;;;;;;;4.50;100.00;62464.09;5028177;28;20198;-81
2023/01/03 06:26:39;;;;;;;25.98;16.08;;;;;;;4.55;100.00;62466.72;5022705;28;20230;-80
2023/01/03 06:29:06;;;;;;;17.00;12.43;;;;;;;4.58;100.00;62472.84;5030547;28;20203;-80
2023/01/03 06:31:33;;;;;;;18.35;12.15;;;;;;;4.56;100.00;62473.31;5027545;28;20233;-80
2023/01/03 06:34:00;;;;;;;23.25;14.70;;;;;;;4.42;100.00;62450.81;5009048;28;20241;-81
2023/01/03 06:36:30;;;;;;;24.15;15.30;;;;;;;4.37;100.00;62448.69;5006351;28;20277;-81
2023/01/03 06:38:58;;;;;;;18.52;13.90;;;;;;;4.37;100.00;62448.69;5026399;28;20246;-80
2023/01/03 06:41:25;;;;;;;23.00;13.98;;;;;;;4.37;100.00;62450.72;5027407;28;20225;-80
2023/01/03 06:43:54;;;;;;;16.67;12.15;;;;;;;4.40;100.00;62451.28;5026458;28;20432;-80
2023/01/03 06:54:46;;;;;;;32.15;17.65;;;;;;;4.54;100.00;62463.69;5036314;28;20205;-82
2023/01/03 06:57:14;;;;;;;32.10;20.00;;;;;;;4.67;100.00;62482.13;5044627;28;20234;-81
2023/01/03 06:59:41;;;;;;;34.72;20.88;;;;;;;4.71;100.00;62481.16;5030551;28;20203;-81
2023/01/03 07:02:08;;;;;;;30.00;18.33;;;;;;;4.61;100.00;62475.41;5017272;28;20219;-80
2023/01/03 07:04:35;;;;;;;32.88;19.13;;;;;;;4.63;100.00;62478.00;5040208;28;20209;-81
2023/01/03 07:07:03;;;;;;;26.73;18.48;;;;;;;4.58;100.00;62470.31;5052641;28;20244;-80
2023/01/03 07:09:31;;;;;;;36.08;18.95;;;;;;;4.59;100.00;62473.88;5043294;28;20226;-82
2023/01/03 07:13:57;;;;;;;33.30;20.40;;;;;;;4.55;100.00;62464.72;5010050;28;20215;-81
2023/01/03 07:14:44;;;;;;;27.45;15.90;;;;;;;4.51;100.00;62465.13;5012564;28;20202;-81
2023/01/03 07:17:12;;;;;;;25.52;16.38;;;;;;;4.53;100.00;62467.19;5009586;28;20234;-80
2023/01/03 07:19:39;;;;;;;22.08;15.55;;;;;;;4.39;100.00;62455.81;5018883;28;20199;-80
2023/01/03 07:22:08;;;;;;;28.02;16.00;;;;;;;4.49;100.00;62463.06;5021968;28;20245;-81
2023/01/03 07:24:35;;;;;;;25.52;17.75;;;;;;;4.67;100.00;62484.13;5029714;28;20198;-80
2023/01/03 07:27:02;;;;;;;26.60;14.82;;;;;;;4.80;100.00;62489.41;5010182;28;20219;-82
2023/01/03 07:29:29;;;;;;;28.20;17.23;;;;;;;4.66;100.00;62481.06;5011682;28;20203;-81
2023/01/03 07:31:57;;;;;;;30.35;20.85;;;;;;;4.66;100.00;62478.56;5026158;28;20304;-81
2023/01/03 07:34:24;;;;;;;23.33;15.65;;;;;;;4.77;100.00;62489.34;5043517;28;20253;-80
2023/01/03 07:36:51;;;;;;;34.40;16.90;;;;;;;4.68;100.00;62482.63;5032102;28;20238;-81
2023/01/03 07:39:23;;;;;;;34.55;18.63;;;;;;;4.77;100.00;62488.84;5022138;28;20502;-81
2023/01/03 07:44:35;;;;;;;42.50;20.38;;;;;;;5.00;100.00;62510.00;5050434;28;20244;-81
2023/01/03 07:47:02;;;;;;;36.03;17.45;;;;;;;5.06;100.00;62521.22;5049634;28;20225;-80
2023/01/03 07:49:29;;;;;;;24.80;17.50;;;;;;;4.98;100.00;62513.00;5030278;28;20237;-81
2023/01/03 07:51:56;;;;;;;25.45;15.98;;;;;;;4.79;100.00;62491.44;5024403;28;20215;-80
2023/01/03 07:54:25;;;;;;;26.42;17.27;;;;;;;4.79;100.00;62493.94;5028321;28;20202;-81
2023/01/03 07:56:52;;;;;;;35.10;21.13;;;;;;;4.85;100.00;62497.09;5028042;28;20438;-79
2023/01/03 07:59:18;;;;;;;26.67;18.55;;;;;;;4.92;100.00;62509.84;5022520;28;20198;-78
2023/01/03 08:01:45;;;;;;;22.58;14.77;;;;;;;4.80;100.00;62494.97;5026936;28;20234;-79
2023/01/03 08:04:12;;;;;;;20.55;12.55;;;;;;;4.93;100.00;62505.84;5023841;28;20204;-78
2023/01/03 08:06:39;;;;;;;18.52;12.77;;;;;;;4.90;100.00;62505.25;5012073;28;20282;-80
2023/01/03 08:14:36;;;;;;;23.17;13.82;;;;;;;5.31;100.00;62544.97;5028139;28;20455;-79
2023/01/03 08:17:03;;;;;;;20.30;13.57;;;;;;;5.45;100.00;62561.91;5029700;28;20234;-79
2023/01/03 08:19:30;;;;;;;21.42;14.27;;;;;;;5.58;100.00;62569.75;5026351;28;20206;-78
2023/01/03 08:22:00;;;;;;;24.25;15.32;;;;;;;5.64;100.00;62581.47;5024964;28;20230;-79
2023/01/03 08:24:26;;;;;;;25.85;18.83;;;;;;;5.95;100.00;62607.38;5027317;28;20226;-80
2023/01/03 08:26:55;;;;;;;35.92;22.23;;;;;;;6.10;100.00;62628.41;5025382;28;20230;-79
2023/01/03 08:29:22;;;;;;;28.05;18.17;;;;;;;6.25;100.00;62641.34;5020962;28;20555;-79
2023/01/03 08:31:53;;;;;;;31.58;19.77;;;;;;;6.34;100.00;62653.16;5022183;28;20443;-81
2023/01/03 08:34:22;;;;;;;31.75;20.75;;;;;;;6.48;100.00;62665.06;5034264;28;20216;-79
2023/01/03 08:36:54;;;;;;;26.50;19.20;;;;;;;6.60;100.00;62679.44;5040331;28;20297;-80
2023/01/03 08:39:25;;;;;;;26.88;17.73;;;;;;;6.73;100.00;62693.34;5024165;28;20214;-79
2023/01/03 08:41:58;;;;;;;30.65;17.90;;;;;;;6.87;100.00;62700.22;5022937;28;20551;-79
2023/01/03 08:44:26;;;;;;;25.33;16.60;;;;;;;6.89;100.00;62704.81;5026333;28;20222;-80
2023/01/03 08:46:55;;;;;;;27.88;16.65;;;;;;;7.09;100.00;62729.47;5032764;28;20223;-80
2023/01/03 08:49:23;;;;;;;28.42;17.15;;;;;;;7.20;100.00;62740.81;5028700;28;20194;-80
2023/01/03 08:51:51;;;;;;;27.67;17.10;;;;;;;7.25;100.00;62740.91;5022533;28;20229;-80
2023/01/03 08:54:17;;;;;;;24.55;16.17;;;;;;;7.24;100.00;62739.88;5027445;28;20262;-80
2023/01/03 08:56:44;;;;;;;26.58;17.25;;;;;;;7.35;100.00;62749.22;5027058;28;20241;-80
2023/01/03 08:59:13;;;;;;;25.50;16.48;;;;;;;7.44;100.00;62766.09;5024653;28;20199;-81
2023/01/03 09:01:41;;;;;;;27.15;17.85;;;;;;;7.52;100.00;62768.78;5030939;28;20222;-81
2023/01/03 09:04:08;;;;;;;27.58;17.95;;;;;;;7.72;100.00;62792.47;5031918;28;20210;-82
2023/01/03 09:06:37;;;;;;;26.83;17.75;;;;;;;7.92;100.00;62815.16;5026657;28;20602;-81
2023/01/03 09:09:08;;;;;;;28.63;17.40;;;;;;;8.05;100.00;62829.09;5027284;28;20230;-82
2023/01/03 09:11:36;;;;;;;26.27;17.00;;;;;;;8.08;100.00;62834.19;5015011;28;20532;-81
2023/01/03 09:14:06;;;;;;;28.48;18.25;;;;;;;8.18;100.00;62839.44;5019475;28;20557;-83
2023/01/03 09:16:35;;;;;;;28.10;17.42;;;;;;;8.16;100.00;62839.94;5027153;28;20222;-83
2023/01/03 09:19:02;;;;;;;28.17;17.13;;;;;;;8.19;100.00;62843.53;5030927;28;20234;-82
2023/01/03 09:21:29;;;;;;;28.30;18.08;;;;;;;8.51;100.00;62878.13;5022576;28;20229;-83
2023/01/03 09:23:57;;;;;;;26.25;18.05;;;;;;;8.43;100.00;62870.38;5028852;28;20199;-82
2023/01/03 09:26:25;;;;;;;33.33;17.95;;;;;;;8.48;100.00;62875.00;5016256;28;20219;-81
2023/01/03 09:28:58;;;;;;;29.73;17.67;;;;;;;8.55;100.00;62877.69;5020462;28;20504;-82
2023/01/03 09:31:28;;;;;;;28.65;18.63;;;;;;;8.73;100.00;62896.28;5029055;28;20241;-82
2023/01/03 09:33:57;;;;;;;29.52;19.17;;;;;;;8.59;100.00;62881.31;5030449;28;20233;-82
2023/01/03 09:36:24;;;;;;;24.20;17.60;;;;;;;8.82;100.00;62905.56;5030779;28;20227;-81
2023/01/03 09:38:55;;;;;;;27.70;18.88;;;;;;;8.75;99.81;62900.38;5021977;28;20421;-83
2023/01/03 09:41:24;;;;;;;27.92;18.40;;;;;;;9.06;99.24;62935.47;5026598;28;20286;-82
2023/01/03 09:43:57;;;;;;;29.88;18.80;;;;;;;9.09;98.52;62932.97;5022321;28;20199;-82
2023/01/03 09:46:29;;;;;;;30.08;19.23;;;;;;;8.79;98.17;62901.97;5027858;28;20223;-85
2023/01/03 09:48:59;;;;;;;27.60;19.08;;;;;;;9.09;97.97;62930.94;5026215;28;20207;-81
2023/01/03 10:05:51;;;;;;;25.80;20.30;;;;;;;9.95;92.84;63018.84;5029653;28;20229;-81
2023/01/03 10:08:39;;;;;;;30.25;20.45;;;;;;;9.89;92.02;63018.22;5038465;28;20198;-83
2023/01/03 10:11:09;;;;;;;35.30;20.40;;;;;;;10.11;92.27;63040.50;5027217;28;20241;-82
2023/01/03 10:13:57;;;;;;;34.58;21.27;;;;;;;10.25;91.68;63052.44;5029317;28;20504;-82
2023/01/03 10:16:35;;;;;;;31.63;20.55;;;;;;;10.11;90.37;63043.03;5022704;28;20250;-82
2023/01/03 10:19:29;;;;;;;29.00;20.50;;;;;;;10.39;90.77;63069.44;5012681;28;20259;-83
2023/01/03 10:22:08;;;;;;;32.08;20.90;;;;;;;10.42;88.72;63075.13;5037551;28;20289;-83
2023/01/03 10:24:44;;;;;;;32.47;20.70;;;;;;;10.57;87.94;63088.09;5039156;28;20208;-84
2023/01/03 10:27:16;;;;;;;31.10;20.40;;;;;;;10.52;86.61;63080.38;5023983;28;20206;-83
2023/01/03 10:29:47;;;;;;;34.90;21.50;;;;;;;10.34;85.03;63064.28;5035648;28;20199;-81
2023/01/03 10:32:34;;;;;;;31.45;20.60;;;;;;;10.66;84.97;63096.88;5034276;28;20230;-84
2023/01/03 10:35:17;;;;;;;36.35;20.48;;;;;;;10.60;84.90;63088.13;5026557;28;20207;-84
2023/01/03 10:37:46;;;;;;;28.67;19.85;;;;;;;10.63;83.65;63091.75;5031046;28;20245;-83
2023/01/03 10:40:17;;;;;;;37.53;20.15;;;;;;;10.79;82.52;63110.88;5033207;28;20199;-82
2023/01/03 10:42:45;;;;;;;34.33;21.15;;;;;;;10.76;81.67;63104.69;5026224;28;20457;-83
2023/01/03 10:45:18;;;;;;;37.17;22.92;;;;;;;11.04;82.37;63136.22;5034306;28;20262;-83
2023/01/03 10:47:45;;;;;;;41.15;24.42;;;;;;;11.05;81.86;63139.81;5026917;28;20224;-84
2023/01/03 10:50:21;;;;;;;42.38;27.35;;;;;;;11.01;81.36;63133.13;5029078;28;20201;-81
2023/01/03 10:52:57;;;;;;;37.92;25.70;;;;;;;11.16;82.25;63149.19;5021241;28;20241;-81
2023/01/03 10:55:25;;;;;;;40.47;25.85;;;;;;;11.28;80.34;63159.06;5021850;28;20187;-83
2023/01/03 10:58:00;;;;;;;42.78;27.73;;;;;;;11.30;79.04;63163.66;5014715;28;20255;-82
2023/01/03 11:00:31;;;;;;;43.88;27.67;;;;;;;11.34;78.97;63164.75;5030528;28;20214;-84
2023/01/03 11:03:16;;;;;;;47.17;29.40;;;;;;;11.58;79.08;63192.16;5032711;28;20209;-83
2023/01/03 11:05:45;;;;;;;49.25;28.17;;;;;;;11.74;77.50;63205.69;5023658;28;20290;-82
2023/01/03 11:08:22;;;;;;;45.95;27.88;;;;;;;11.83;77.47;63215.53;5030730;28;20231;-82
2023/01/03 11:10:55;;;;;;;46.55;29.77;;;;;;;11.87;75.96;63219.69;5027480;28;20222;-83
2023/01/03 11:13:30;;;;;;;44.33;27.80;;;;;;;11.90;75.19;63227.88;5027321;28;20202;-82
2023/01/03 11:15:59;;;;;;;47.72;29.75;;;;;;;11.67;75.26;63195.88;5031028;28;20225;-82
2023/01/03 11:18:27;;;;;;;50.65;30.63;;;;;;;11.87;76.82;63224.78;5032847;28;20231;-83
2023/01/03 11:21:07;;;;;;;46.45;28.60;;;;;;;12.01;74.33;63231.63;5027375;28;20485;-82
2023/01/03 11:24:18;;;;;;;53.70;29.65;;;;;;;12.08;74.82;63243.97;5016132;28;20221;-82
2023/01/03 11:26:52;;;;;;;49.95;30.80;;;;;;;11.99;75.18;63234.16;4962486;28;20220;-82
2023/01/03 11:29:41;;;;;;;46.35;31.33;;;;;;;12.04;75.34;63239.31;5022817;28;20537;-83
2023/01/03 11:32:23;;;;;;;52.80;32.38;;;;;;;11.94;75.37;63231.50;5029062;28;20234;-80
2023/01/03 11:35:13;;;;;;;54.38;33.45;;;;;;;11.82;77.23;63213.97;5030863;28;20198;-81
2023/01/03 11:37:49;;;;;;;55.22;33.97;;;;;;;11.93;76.14;63227.91;5028487;28;20246;-82
2023/01/03 11:40:28;;;;;;;52.40;32.85;;;;;;;11.91;76.25;63228.41;5034504;28;20357;-83
2023/01/03 11:43:12;;;;;;;55.35;33.17;;;;;;;11.76;75.80;63205.72;5028101;28;20195;-81
2023/01/03 11:45:50;;;;;;;52.53;32.08;;;;;;;11.84;75.76;63216.06;5016603;28;20225;-82
2023/01/03 11:48:47;;;;;;;56.47;34.08;;;;;;;11.90;77.10;63227.38;5030472;28;20253;-82
2023/01/03 11:51:17;;;;;;;71.35;35.20;;;;;;;12.03;75.97;63238.78;5027795;28;20227;-81
2023/01/03 11:53:56;;;;;;;58.15;34.40;;;;;;;12.13;75.83;63249.16;5028857;28;20199;-84
2023/01/03 11:56:31;;;;;;;58.58;34.92;;;;;;;12.27;74.67;63261.13;5030888;28;20249;-81
2023/01/03 11:59:25;;;;;;;54.05;35.00;;;;;;;12.21;75.08;63251.84;5025170;28;20531;-82
2023/01/03 12:02:23;;;;;;;56.33;34.95;;;;;;;12.50;73.64;63287.00;5028382;28;20221;-82
2023/01/03 12:05:01;;;;;;;58.13;34.22;;;;;;;12.60;72.11;63295.34;5031523;28;20515;-83
2023/01/03 12:07:40;;;;;;;55.67;33.03;;;;;;;12.68;71.53;63303.63;5030975;28;20481;-82
2023/01/03 12:10:32;;;;;;;58.40;35.15;;;;;;;12.74;69.93;63307.31;5026395;28;20207;-82
2023/01/03 12:13:24;;;;;;;61.45;36.60;;;;;;;12.82;68.74;63319.66;5035999;28;20213;-85
2023/01/03 12:19:25;;;;;;;57.00;33.38;;;;;;;12.68;67.22;63308.72;5004438;28;20246;-81
2023/01/03 12:23:15;;;;;;;64.53;34.63;;;;;;;12.94;67.65;63332.13;5055618;22;20225;-83
2023/01/03 12:25:47;;;;;;;56.20;34.05;;;;;;;12.80;67.64;63316.06;5024164;28;20232;-83
2023/01/03 12:28:21;;;;;;;52.80;33.83;;;;;;;12.74;68.01;63317.53;5041749;28;20755;-81
2023/01/03 12:30:57;;;;;;;55.95;34.80;;;;;;;12.83;68.76;63321.22;5064349;28;20213;-82
2023/01/03 12:33:30;;;;;;;68.80;36.70;;;;;;;12.93;66.07;63334.16;5054071;28;20237;-82
2023/01/03 12:36:01;;;;;;;73.78;38.53;;;;;;;12.78;65.58;63319.13;5053377;28;20221;-82
2023/01/03 12:38:41;;;;;;;66.78;39.50;;;;;;;12.57;65.54;63294.78;5029257;28;20605;-82
2023/01/03 12:41:28;;;;;;;66.97;38.80;;;;;;;12.62;66.16;63297.41;5032424;28;20225;-82
2023/01/03 12:44:10;;;;;;;72.63;41.35;;;;;;;12.63;65.45;63295.88;5041244;28;20202;-82
2023/01/03 12:46:46;;;;;;;63.95;37.30;;;;;;;12.82;66.57;63320.69;5037667;28;20435;-82
2023/01/03 12:49:19;;;;;;;72.38;39.10;;;;;;;12.95;65.72;63333.16;5036947;28;20427;-83
2023/01/03 12:51:48;;;;;;;66.55;41.00;;;;;;;13.06;65.04;63345.09;5043444;28;20461;-82